Brunswick, GA (31523)

6:48 AM EDT on August 04, 2015 (GMT -0400)
Dixville | | Change Station
CLOSE
Current Station
Personal Weather Station
Location: Brunswick, GA
Elevation: 0 ft
Nearby Weather Stations

Elev 0 ft 31.14 °N, 81.49 °W | Updated 31 seconds ago

Overcast
Overcast
78.0 °F
Feels Like 81 °F
N
0.0
Wind Variable Wind from North
Gusts 2.0 mph

Today
High -- | Low -- °F
--% Chance of Precip.
Yesterday
High -- | Low -- °F
Precip. -- in
6:44 AM 8:19 PM
Waning Gibbous, 79% visible
Pressure 29.94 in
Visibility 10.0 miles
Clouds Overcast 500 ft
Heat Index 81 °F
Dew Point 76 °F
Humidity 94%
Rainfall 0.00 in
Snow Depth Not available.
UV 0.0 out of 12
Pollen 2.50 out of 12
Air Quality Not available.
Flu Activity Not available.
METAR KBQK 041035Z AUTO 25005KT 10SM OVC005 25/24 A2994 RMK AO1 LTG DSNT E THRU S

More Conditions Fewer Conditions

Pressure 29.94 in
Visibility 10.0 miles
Clouds Overcast 500 ft
Heat Index 81 °F
Dew Point 76 °F
Humidity 94%
Rainfall 0.00 in
Snow Depth Not available.
UV 0.0 out of 12
Pollen 2.50 out of 12
Air Quality Not available.
Flu Activity Not available.
METAR KBQK 041035Z AUTO 25005KT 10SM OVC005 25/24 A2994 RMK AO1 LTG DSNT E THRU S

More Conditions Fewer Conditions

10-Day Weather Forecast

×

Almanac

Astronomy

Aug. 04, 2015 Rise Set
Actual Time
Civil Twilight
Nautical Twilight
Astronomical Twilight
Moon
Length of Visible Light
Length of Day
Tomorrow will be .
, % of the Moon is Illuminated

Today's Extremes

State Highs State Lows

Community

WunderPhotos

Upload Photos

1,843,883 photos uploaded!

WunderBlogs® & News

Nearby

Air Quality

  Air Quality AQ Index Pollutant
Not available.

Snow Depth

Station Depth Elevation

Earthquake Activity

City Distance Mag. Time & Date
Minimum magnitude displayed is 2.5.

Coastal Water Temperatures

Place Temperature

Stations

Nearby Weather Stations

Station Location Temp. Windchill Dew Point Humidity Wind Precip. Elev Updated Type